Alcova, WY

7:41 AM MDT on July 23, 2014 (GMT -0600)
Rawlins Municipal (KRWL) Elev 6814 ft | 41.81 °N, 107.20 °W | Change Station

Current weather conditions updated 48 minutes ago

Clear
Clear
58 °F
Feels Like 58 °F
N
4
Wind Variable Wind from NE

Today is forecast to be Warmer than yesterday.

Today
High -- | Low -- °F
--% Chance of Precip.
Yesterday
High -- | Low -- °F
Precip. -- in
5:50 AM 8:36 PM
Waning Crescent, 10% visible
Pressure 30.08 in
Visibility 10.0 miles
Clouds Clear
Dew Point 37 °F
Humidity 46%
Rainfall 0.00 in
Snow Depth Not available.
UV 1 out of 12
Pollen 6.70 out of 12
Air Quality Not available.
Flu Activity Not available.
METAR KRWL 231253Z AUTO 05003KT 10SM CLR 14/03 A3039 RMK AO2 SLP184 T01440028

More Conditions Fewer Conditions

Pressure 30.08 in
Visibility 10.0 miles
Clouds Clear
Dew Point 37 °F
Humidity 46%
Rainfall 0.00 in
Snow Depth Not available.
UV 1 out of 12
Pollen 6.70 out of 12
Air Quality Not available.
Flu Activity Not available.
METAR KRWL 231253Z AUTO 05003KT 10SM CLR 14/03 A3039 RMK AO2 SLP184 T01440028

More Conditions Fewer Conditions

10-Day Weather Forecast

Almanac

Astronomy

Jul. 23, 2014 Rise Set
Actual Time 5:50 AM MDT 8:36 PM MDT
Civil Twilight 5:18 AM MDT 9:09 PM MDT
Nautical Twilight 4:36 AM MDT 9:50 PM MDT
Astronomical Twilight 3:48 AM MDT 10:38 PM MDT
Moon 3:12 AM MDT 6:07 PM MDT
Length of Visible Light 15h 51m
Length of Day
14h 45m
Tomorrow will be 1m 53s shorter.
Waning Crescent, 10% of the Moon is Illuminated
Today
Waning Crescent
Jul 26
New
Aug 3
First Quarter
Aug 10
Full
Aug 17
Last Quarter

Today's Extremes

State Highs State Lows

Community

WunderPhotos

Upload Photos

1,736,594 photos uploaded!

Nearby

Snow Depth

Station Depth Elevation
Casper Mountain 0 in 7850 ft
Reno Hill 0 in 8500 ft
Sage Creek Basin 0 in 7850 ft
Sand Lake 1 in 10050 ft
South Brush Creek 0 in 8440 ft

Earthquake Activity

City Distance Mag. Time & Date
No recent earthquake activity has been reported nearby.
Minimum magnitude displayed is 2.5.

Coastal Water Temperatures

Place Temperature
No Stations Reporting

Nearby Weather Stations

Station Location Temp. Dew Point Humidity Wind Precip. Elev Updated Type
HADS PATHFINDER DAM WEATHER STATION N WY, Alcova, WY 59 °F - - NE  at  2 mph 0.00 in / hr 5856 ft 6:30 AM MDT MADIS
The Estates, Alcova, WY 66.0 °F 57 °F 73% SE  at  2.0 mph 0.00 in / hr 5489 ft 7:41 AM MDT Rapid Fire
HADS SWEETWATER RIVER NEAR ALCOVA 25W WY, Alcova, WY 57 °F - - North  at  - 0.00 in / hr 5918 ft 6:45 AM MDT MADIS

Show More Stations Show Fewer Stations